sensor_id;sensor_type;location;lat;lon;timestamp;P1;durP1;ratioP1;P2;durP2;ratioP2
12171;SDS011;6149;52.418;13.668;2022-10-26T00:01:04;6.73;;;6.03;;
12171;SDS011;6149;52.418;13.668;2022-10-26T00:03:34;7.50;;;5.67;;
12171;SDS011;6149;52.418;13.668;2022-10-26T00:06:02;8.57;;;5.73;;
12171;SDS011;6149;52.418;13.668;2022-10-26T00:08:31;7.97;;;5.90;;
12171;SDS011;6149;52.418;13.668;2022-10-26T00:11:00;8.93;;;6.67;;
12171;SDS011;6149;52.418;13.668;2022-10-26T00:13:27;7.73;;;5.57;;
12171;SDS011;6149;52.418;13.668;2022-10-26T00:15:53;8.47;;;6.07;;
12171;SDS011;6149;52.418;13.668;2022-10-26T00:18:20;10.63;;;6.63;;
12171;SDS011;6149;52.418;13.668;2022-10-26T00:20:48;7.23;;;5.73;;
12171;SDS011;6149;52.418;13.668;2022-10-26T00:23:16;9.53;;;6.67;;
12171;SDS011;6149;52.418;13.668;2022-10-26T00:25:42;8.00;;;6.53;;
12171;SDS011;6149;52.418;13.668;2022-10-26T00:28:10;14.33;;;6.93;;
12171;SDS011;6149;52.418;13.668;2022-10-26T00:30:37;9.13;;;5.77;;
12171;SDS011;6149;52.418;13.668;2022-10-26T00:33:04;6.30;;;5.60;;
12171;SDS011;6149;52.418;13.668;2022-10-26T00:35:32;7.50;;;6.53;;
12171;SDS011;6149;52.418;13.668;2022-10-26T00:37:59;7.93;;;6.00;;
12171;SDS011;6149;52.418;13.668;2022-10-26T00:40:26;7.10;;;5.80;;
12171;SDS011;6149;52.418;13.668;2022-10-26T00:42:53;6.83;;;5.87;;
12171;SDS011;6149;52.418;13.668;2022-10-26T00:45:22;8.40;;;5.63;;
12171;SDS011;6149;52.418;13.668;2022-10-26T00:47:52;6.20;;;5.20;;
12171;SDS011;6149;52.418;13.668;2022-10-26T00:50:24;7.43;;;6.10;;
12171;SDS011;6149;52.418;13.668;2022-10-26T00:52:54;10.77;;;6.60;;
12171;SDS011;6149;52.418;13.668;2022-10-26T00:55:24;8.53;;;6.00;;
12171;SDS011;6149;52.418;13.668;2022-10-26T00:57:55;9.53;;;6.73;;
12171;SDS011;6149;52.418;13.668;2022-10-26T01:00:23;7.70;;;5.93;;
12171;SDS011;6149;52.418;13.668;2022-10-26T01:02:50;8.67;;;6.00;;
12171;SDS011;6149;52.418;13.668;2022-10-26T01:05:21;7.47;;;6.23;;
12171;SDS011;6149;52.418;13.668;2022-10-26T01:09:03;12.07;;;6.53;;
12171;SDS011;6149;52.418;13.668;2022-10-26T01:11:30;11.07;;;6.63;;
12171;SDS011;6149;52.418;13.668;2022-10-26T01:13:57;8.03;;;5.70;;
12171;SDS011;6149;52.418;13.668;2022-10-26T01:16:31;7.97;;;6.03;;
12171;SDS011;6149;52.418;13.668;2022-10-26T01:22:28;9.37;;;6.00;;
12171;SDS011;6149;52.418;13.668;2022-10-26T01:25:02;7.63;;;5.83;;
12171;SDS011;6149;52.418;13.668;2022-10-26T01:27:38;9.17;;;5.23;;
12171;SDS011;6149;52.418;13.668;2022-10-26T01:30:20;10.93;;;6.87;;
12171;SDS011;6149;52.418;13.668;2022-10-26T01:33:02;8.73;;;6.70;;
12171;SDS011;6149;52.418;13.668;2022-10-26T01:35:41;7.50;;;5.80;;
12171;SDS011;6149;52.418;13.668;2022-10-26T01:38:17;10.80;;;6.07;;
12171;SDS011;6149;52.418;13.668;2022-10-26T01:40:53;7.70;;;5.57;;
12171;SDS011;6149;52.418;13.668;2022-10-26T01:43:28;8.57;;;5.70;;
12171;SDS011;6149;52.418;13.668;2022-10-26T01:46:00;6.33;;;5.30;;
12171;SDS011;6149;52.418;13.668;2022-10-26T01:48:30;6.23;;;5.40;;
12171;SDS011;6149;52.418;13.668;2022-10-26T01:51:00;7.57;;;5.37;;
12171;SDS011;6149;52.418;13.668;2022-10-26T01:53:29;7.27;;;5.93;;
12171;SDS011;6149;52.418;13.668;2022-10-26T01:55:56;10.33;;;6.50;;
12171;SDS011;6149;52.418;13.668;2022-10-26T01:58:45;7.83;;;5.40;;
12171;SDS011;6149;52.418;13.668;2022-10-26T02:01:52;6.40;;;5.67;;
12171;SDS011;6149;52.418;13.668;2022-10-26T02:05:09;11.57;;;6.17;;
12171;SDS011;6149;52.418;13.668;2022-10-26T02:07:50;10.03;;;6.00;;
12171;SDS011;6149;52.418;13.668;2022-10-26T02:10:29;8.00;;;5.73;;
12171;SDS011;6149;52.418;13.668;2022-10-26T02:13:08;8.23;;;5.13;;
12171;SDS011;6149;52.418;13.668;2022-10-26T02:15:44;7.73;;;5.60;;
12171;SDS011;6149;52.418;13.668;2022-10-26T02:18:20;7.33;;;5.40;;
12171;SDS011;6149;52.418;13.668;2022-10-26T02:20:56;8.00;;;5.47;;
12171;SDS011;6149;52.418;13.668;2022-10-26T02:23:29;7.43;;;5.10;;
12171;SDS011;6149;52.418;13.668;2022-10-26T02:26:02;8.73;;;5.47;;
12171;SDS011;6149;52.418;13.668;2022-10-26T02:28:34;10.37;;;5.50;;
12171;SDS011;6149;52.418;13.668;2022-10-26T02:31:04;9.20;;;5.60;;
12171;SDS011;6149;52.418;13.668;2022-10-26T02:33:36;8.73;;;5.27;;
12171;SDS011;6149;52.418;13.668;2022-10-26T02:36:09;9.10;;;5.57;;
12171;SDS011;6149;52.418;13.668;2022-10-26T02:38:40;7.33;;;4.90;;
12171;SDS011;6149;52.418;13.668;2022-10-26T02:41:08;8.87;;;5.63;;
12171;SDS011;6149;52.418;13.668;2022-10-26T02:43:40;6.60;;;5.40;;
12171;SDS011;6149;52.418;13.668;2022-10-26T02:46:11;8.57;;;5.80;;
12171;SDS011;6149;52.418;13.668;2022-10-26T02:48:44;7.23;;;5.30;;
12171;SDS011;6149;52.418;13.668;2022-10-26T02:51:11;7.17;;;4.97;;
12171;SDS011;6149;52.418;13.668;2022-10-26T02:53:46;8.83;;;5.17;;
12171;SDS011;6149;52.418;13.668;2022-10-26T02:56:19;7.73;;;5.23;;
12171;SDS011;6149;52.418;13.668;2022-10-26T02:58:51;9.07;;;5.37;;
12171;SDS011;6149;52.418;13.668;2022-10-26T03:01:21;8.17;;;5.60;;
12171;SDS011;6149;52.418;13.668;2022-10-26T03:03:49;9.20;;;6.33;;
12171;SDS011;6149;52.418;13.668;2022-10-26T03:06:20;9.13;;;6.53;;
12171;SDS011;6149;52.418;13.668;2022-10-26T03:08:47;8.47;;;5.60;;
12171;SDS011;6149;52.418;13.668;2022-10-26T03:11:15;7.87;;;5.80;;
12171;SDS011;6149;52.418;13.668;2022-10-26T03:13:44;7.80;;;5.50;;
12171;SDS011;6149;52.418;13.668;2022-10-26T03:16:12;10.10;;;5.30;;
12171;SDS011;6149;52.418;13.668;2022-10-26T03:18:38;7.77;;;5.77;;
12171;SDS011;6149;52.418;13.668;2022-10-26T03:21:07;6.47;;;5.43;;
12171;SDS011;6149;52.418;13.668;2022-10-26T03:23:34;8.37;;;5.80;;
12171;SDS011;6149;52.418;13.668;2022-10-26T03:26:01;7.63;;;5.87;;
12171;SDS011;6149;52.418;13.668;2022-10-26T03:28:27;7.53;;;5.20;;
12171;SDS011;6149;52.418;13.668;2022-10-26T03:30:54;7.57;;;5.10;;
12171;SDS011;6149;52.418;13.668;2022-10-26T03:33:20;7.60;;;5.27;;
12171;SDS011;6149;52.418;13.668;2022-10-26T03:35:52;5.37;;;4.73;;
12171;SDS011;6149;52.418;13.668;2022-10-26T03:38:22;7.70;;;5.03;;
12171;SDS011;6149;52.418;13.668;2022-10-26T03:40:50;9.17;;;5.97;;
12171;SDS011;6149;52.418;13.668;2022-10-26T03:43:17;10.83;;;6.57;;
12171;SDS011;6149;52.418;13.668;2022-10-26T03:45:43;9.57;;;6.20;;
12171;SDS011;6149;52.418;13.668;2022-10-26T03:48:10;10.33;;;6.17;;
12171;SDS011;6149;52.418;13.668;2022-10-26T03:50:36;10.30;;;6.80;;
12171;SDS011;6149;52.418;13.668;2022-10-26T03:53:05;18.73;;;8.17;;
12171;SDS011;6149;52.418;13.668;2022-10-26T03:55:33;12.17;;;6.50;;
12171;SDS011;6149;52.418;13.668;2022-10-26T03:58:00;11.57;;;7.27;;
12171;SDS011;6149;52.418;13.668;2022-10-26T04:00:26;10.20;;;6.83;;
12171;SDS011;6149;52.418;13.668;2022-10-26T04:02:54;11.77;;;7.23;;
12171;SDS011;6149;52.418;13.668;2022-10-26T04:05:22;14.87;;;6.87;;
12171;SDS011;6149;52.418;13.668;2022-10-26T04:07:55;9.90;;;6.03;;
12171;SDS011;6149;52.418;13.668;2022-10-26T04:10:25;9.77;;;6.43;;
12171;SDS011;6149;52.418;13.668;2022-10-26T04:12:54;11.30;;;7.50;;
12171;SDS011;6149;52.418;13.668;2022-10-26T04:15:21;12.93;;;7.27;;
12171;SDS011;6149;52.418;13.668;2022-10-26T04:17:48;11.07;;;6.97;;
12171;SDS011;6149;52.418;13.668;2022-10-26T04:20:21;9.97;;;7.37;;
12171;SDS011;6149;52.418;13.668;2022-10-26T04:22:55;13.17;;;7.70;;
12171;SDS011;6149;52.418;13.668;2022-10-26T04:25:24;10.43;;;6.83;;
12171;SDS011;6149;52.418;13.668;2022-10-26T04:27:51;11.97;;;7.50;;
12171;SDS011;6149;52.418;13.668;2022-10-26T04:30:19;8.50;;;6.27;;
12171;SDS011;6149;52.418;13.668;2022-10-26T04:32:46;7.87;;;6.00;;
12171;SDS011;6149;52.418;13.668;2022-10-26T04:35:13;10.77;;;6.50;;
12171;SDS011;6149;52.418;13.668;2022-10-26T04:37:41;9.20;;;6.77;;
12171;SDS011;6149;52.418;13.668;2022-10-26T04:40:09;10.23;;;6.80;;
12171;SDS011;6149;52.418;13.668;2022-10-26T04:42:40;11.53;;;6.20;;
12171;SDS011;6149;52.418;13.668;2022-10-26T04:45:08;12.37;;;7.07;;
12171;SDS011;6149;52.418;13.668;2022-10-26T04:47:36;9.87;;;6.30;;
12171;SDS011;6149;52.418;13.668;2022-10-26T04:50:04;14.33;;;8.17;;
12171;SDS011;6149;52.418;13.668;2022-10-26T04:52:32;9.40;;;7.27;;
12171;SDS011;6149;52.418;13.668;2022-10-26T04:54:59;10.07;;;6.43;;
12171;SDS011;6149;52.418;13.668;2022-10-26T04:57:26;10.50;;;7.40;;
12171;SDS011;6149;52.418;13.668;2022-10-26T04:59:52;10.87;;;7.53;;
12171;SDS011;6149;52.418;13.668;2022-10-26T05:02:19;13.70;;;8.23;;
12171;SDS011;6149;52.418;13.668;2022-10-26T05:04:47;21.20;;;8.77;;
12171;SDS011;6149;52.418;13.668;2022-10-26T05:07:15;12.90;;;7.60;;
12171;SDS011;6149;52.418;13.668;2022-10-26T05:09:41;9.90;;;7.20;;
12171;SDS011;6149;52.418;13.668;2022-10-26T05:12:08;14.77;;;7.93;;
12171;SDS011;6149;52.418;13.668;2022-10-26T05:14:35;38.63;;;9.70;;
12171;SDS011;6149;52.418;13.668;2022-10-26T05:17:01;8.50;;;6.10;;
12171;SDS011;6149;52.418;13.668;2022-10-26T05:19:28;15.17;;;7.77;;
12171;SDS011;6149;52.418;13.668;2022-10-26T05:21:55;11.47;;;6.93;;
12171;SDS011;6149;52.418;13.668;2022-10-26T05:24:24;27.90;;;7.80;;
12171;SDS011;6149;52.418;13.668;2022-10-26T05:26:50;9.10;;;6.53;;
12171;SDS011;6149;52.418;13.668;2022-10-26T05:29:16;8.73;;;6.73;;
12171;SDS011;6149;52.418;13.668;2022-10-26T05:31:44;8.37;;;6.43;;
12171;SDS011;6149;52.418;13.668;2022-10-26T05:34:11;11.63;;;6.90;;
12171;SDS011;6149;52.418;13.668;2022-10-26T05:36:39;11.60;;;6.30;;
12171;SDS011;6149;52.418;13.668;2022-10-26T05:39:07;11.20;;;5.93;;
12171;SDS011;6149;52.418;13.668;2022-10-26T05:41:33;7.10;;;5.67;;
12171;SDS011;6149;52.418;13.668;2022-10-26T05:44:00;8.27;;;5.73;;
12171;SDS011;6149;52.418;13.668;2022-10-26T05:46:26;11.30;;;5.47;;
12171;SDS011;6149;52.418;13.668;2022-10-26T05:48:53;5.87;;;4.87;;
12171;SDS011;6149;52.418;13.668;2022-10-26T05:51:19;5.77;;;5.03;;
12171;SDS011;6149;52.418;13.668;2022-10-26T05:53:49;7.63;;;5.00;;
12171;SDS011;6149;52.418;13.668;2022-10-26T05:56:20;8.53;;;4.90;;
12171;SDS011;6149;52.418;13.668;2022-10-26T05:58:59;7.37;;;4.57;;
12171;SDS011;6149;52.418;13.668;2022-10-26T06:01:30;6.40;;;5.00;;
12171;SDS011;6149;52.418;13.668;2022-10-26T06:04:12;8.30;;;5.17;;
12171;SDS011;6149;52.418;13.668;2022-10-26T06:06:55;6.40;;;5.03;;
12171;SDS011;6149;52.418;13.668;2022-10-26T06:09:24;6.83;;;5.33;;
12171;SDS011;6149;52.418;13.668;2022-10-26T06:11:52;6.13;;;5.10;;
12171;SDS011;6149;52.418;13.668;2022-10-26T06:14:20;9.43;;;5.93;;
12171;SDS011;6149;52.418;13.668;2022-10-26T06:16:51;6.53;;;5.53;;
12171;SDS011;6149;52.418;13.668;2022-10-26T06:19:32;8.20;;;5.07;;
12171;SDS011;6149;52.418;13.668;2022-10-26T06:22:15;6.53;;;5.03;;
12171;SDS011;6149;52.418;13.668;2022-10-26T06:24:59;7.53;;;5.63;;
12171;SDS011;6149;52.418;13.668;2022-10-26T06:27:40;6.73;;;5.00;;
12171;SDS011;6149;52.418;13.668;2022-10-26T06:30:14;8.37;;;6.20;;
12171;SDS011;6149;52.418;13.668;2022-10-26T06:32:42;6.97;;;5.43;;
12171;SDS011;6149;52.418;13.668;2022-10-26T06:35:14;8.07;;;5.83;;
12171;SDS011;6149;52.418;13.668;2022-10-26T06:37:50;8.23;;;6.30;;
12171;SDS011;6149;52.418;13.668;2022-10-26T06:40:19;9.27;;;5.90;;
12171;SDS011;6149;52.418;13.668;2022-10-26T06:42:49;9.67;;;6.00;;
12171;SDS011;6149;52.418;13.668;2022-10-26T06:45:16;8.20;;;5.90;;
12171;SDS011;6149;52.418;13.668;2022-10-26T06:47:45;7.93;;;6.07;;
12171;SDS011;6149;52.418;13.668;2022-10-26T06:50:24;8.10;;;5.50;;
12171;SDS011;6149;52.418;13.668;2022-10-26T06:53:02;8.73;;;6.40;;
12171;SDS011;6149;52.418;13.668;2022-10-26T06:55:41;8.80;;;6.10;;
12171;SDS011;6149;52.418;13.668;2022-10-26T06:58:14;9.70;;;6.17;;
12171;SDS011;6149;52.418;13.668;2022-10-26T07:00:43;7.33;;;5.83;;
12171;SDS011;6149;52.418;13.668;2022-10-26T07:03:14;7.00;;;5.07;;
12171;SDS011;6149;52.418;13.668;2022-10-26T07:05:41;6.63;;;5.10;;
12171;SDS011;6149;52.418;13.668;2022-10-26T07:08:08;8.93;;;5.27;;
12171;SDS011;6149;52.418;13.668;2022-10-26T07:10:36;7.13;;;5.17;;
12171;SDS011;6149;52.418;13.668;2022-10-26T07:13:04;8.37;;;5.53;;
12171;SDS011;6149;52.418;13.668;2022-10-26T07:15:32;6.63;;;5.50;;
12171;SDS011;6149;52.418;13.668;2022-10-26T07:17:59;7.97;;;5.80;;
12171;SDS011;6149;52.418;13.668;2022-10-26T07:20:27;9.37;;;6.27;;
12171;SDS011;6149;52.418;13.668;2022-10-26T07:22:54;7.67;;;5.77;;
12171;SDS011;6149;52.418;13.668;2022-10-26T07:25:22;8.07;;;5.50;;
12171;SDS011;6149;52.418;13.668;2022-10-26T07:27:50;8.97;;;6.23;;
12171;SDS011;6149;52.418;13.668;2022-10-26T07:30:22;10.03;;;7.37;;
12171;SDS011;6149;52.418;13.668;2022-10-26T07:32:54;15.70;;;11.43;;
12171;SDS011;6149;52.418;13.668;2022-10-26T07:35:26;18.80;;;12.93;;
12171;SDS011;6149;52.418;13.668;2022-10-26T07:37:56;14.10;;;10.07;;
12171;SDS011;6149;52.418;13.668;2022-10-26T07:40:24;12.57;;;8.77;;
12171;SDS011;6149;52.418;13.668;2022-10-26T07:42:52;12.50;;;8.90;;
12171;SDS011;6149;52.418;13.668;2022-10-26T07:45:22;11.47;;;8.30;;
12171;SDS011;6149;52.418;13.668;2022-10-26T07:47:49;10.73;;;7.83;;
12171;SDS011;6149;52.418;13.668;2022-10-26T07:50:18;10.60;;;7.33;;
12171;SDS011;6149;52.418;13.668;2022-10-26T07:52:45;11.00;;;8.60;;
12171;SDS011;6149;52.418;13.668;2022-10-26T07:55:12;11.70;;;8.37;;
12171;SDS011;6149;52.418;13.668;2022-10-26T07:57:39;14.47;;;10.40;;
12171;SDS011;6149;52.418;13.668;2022-10-26T08:00:07;12.37;;;9.70;;
12171;SDS011;6149;52.418;13.668;2022-10-26T08:02:35;16.37;;;10.83;;
12171;SDS011;6149;52.418;13.668;2022-10-26T08:05:02;13.90;;;11.23;;
12171;SDS011;6149;52.418;13.668;2022-10-26T08:07:31;16.37;;;11.37;;
12171;SDS011;6149;52.418;13.668;2022-10-26T08:09:59;19.03;;;11.97;;
12171;SDS011;6149;52.418;13.668;2022-10-26T08:12:25;14.77;;;10.83;;
12171;SDS011;6149;52.418;13.668;2022-10-26T08:14:52;15.60;;;10.90;;
12171;SDS011;6149;52.418;13.668;2022-10-26T08:17:18;11.97;;;10.37;;
12171;SDS011;6149;52.418;13.668;2022-10-26T08:19:48;11.77;;;9.60;;
12171;SDS011;6149;52.418;13.668;2022-10-26T08:22:14;14.00;;;9.50;;
12171;SDS011;6149;52.418;13.668;2022-10-26T08:24:42;12.67;;;9.50;;
12171;SDS011;6149;52.418;13.668;2022-10-26T08:27:10;13.53;;;8.83;;
12171;SDS011;6149;52.418;13.668;2022-10-26T08:29:37;11.93;;;8.90;;
12171;SDS011;6149;52.418;13.668;2022-10-26T08:32:04;12.20;;;8.03;;
12171;SDS011;6149;52.418;13.668;2022-10-26T08:34:30;10.93;;;8.50;;
12171;SDS011;6149;52.418;13.668;2022-10-26T08:36:57;10.93;;;8.47;;
12171;SDS011;6149;52.418;13.668;2022-10-26T08:39:25;12.13;;;8.07;;
12171;SDS011;6149;52.418;13.668;2022-10-26T08:41:55;8.93;;;8.03;;
12171;SDS011;6149;52.418;13.668;2022-10-26T08:44:30;10.60;;;7.27;;
12171;SDS011;6149;52.418;13.668;2022-10-26T08:47:04;8.23;;;7.30;;
12171;SDS011;6149;52.418;13.668;2022-10-26T08:49:38;8.07;;;6.50;;
12171;SDS011;6149;52.418;13.668;2022-10-26T08:52:13;7.40;;;6.13;;
12171;SDS011;6149;52.418;13.668;2022-10-26T08:54:47;9.17;;;6.67;;
12171;SDS011;6149;52.418;13.668;2022-10-26T08:57:20;7.70;;;6.37;;
12171;SDS011;6149;52.418;13.668;2022-10-26T08:59:52;7.67;;;5.80;;
12171;SDS011;6149;52.418;13.668;2022-10-26T09:02:26;8.03;;;5.57;;
12171;SDS011;6149;52.418;13.668;2022-10-26T09:04:54;6.87;;;6.17;;
12171;SDS011;6149;52.418;13.668;2022-10-26T09:07:32;5.50;;;4.97;;
12171;SDS011;6149;52.418;13.668;2022-10-26T09:10:15;5.97;;;5.23;;
12171;SDS011;6149;52.418;13.668;2022-10-26T09:13:00;8.70;;;5.40;;
12171;SDS011;6149;52.418;13.668;2022-10-26T09:15:37;6.30;;;5.00;;
12171;SDS011;6149;52.418;13.668;2022-10-26T09:18:16;6.53;;;4.80;;
12171;SDS011;6149;52.418;13.668;2022-10-26T09:21:09;7.87;;;5.47;;
12171;SDS011;6149;52.418;13.668;2022-10-26T09:23:56;7.33;;;4.53;;
12171;SDS011;6149;52.418;13.668;2022-10-26T09:26:30;6.37;;;3.70;;
12171;SDS011;6149;52.418;13.668;2022-10-26T09:29:04;7.43;;;4.60;;
12171;SDS011;6149;52.418;13.668;2022-10-26T09:31:38;5.50;;;4.03;;
12171;SDS011;6149;52.418;13.668;2022-10-26T09:34:10;9.93;;;4.27;;
12171;SDS011;6149;52.418;13.668;2022-10-26T09:36:43;7.73;;;4.20;;
12171;SDS011;6149;52.418;13.668;2022-10-26T09:39:11;7.67;;;4.13;;
12171;SDS011;6149;52.418;13.668;2022-10-26T09:41:48;7.10;;;3.30;;
12171;SDS011;6149;52.418;13.668;2022-10-26T09:44:23;8.43;;;4.00;;
12171;SDS011;6149;52.418;13.668;2022-10-26T09:46:54;11.23;;;4.83;;
12171;SDS011;6149;52.418;13.668;2022-10-26T09:49:27;6.93;;;3.33;;
12171;SDS011;6149;52.418;13.668;2022-10-26T09:52:05;9.80;;;3.90;;
12171;SDS011;6149;52.418;13.668;2022-10-26T09:54:31;4.10;;;3.43;;
12171;SDS011;6149;52.418;13.668;2022-10-26T09:56:59;4.87;;;3.73;;
12171;SDS011;6149;52.418;13.668;2022-10-26T09:59:29;5.67;;;3.50;;
12171;SDS011;6149;52.418;13.668;2022-10-26T10:02:09;9.07;;;4.03;;
12171;SDS011;6149;52.418;13.668;2022-10-26T10:05:01;6.60;;;3.97;;
12171;SDS011;6149;52.418;13.668;2022-10-26T10:07:29;7.13;;;3.53;;
12171;SDS011;6149;52.418;13.668;2022-10-26T10:10:07;4.53;;;3.23;;
12171;SDS011;6149;52.418;13.668;2022-10-26T10:12:42;4.87;;;3.37;;
12171;SDS011;6149;52.418;13.668;2022-10-26T10:15:15;6.33;;;3.37;;
12171;SDS011;6149;52.418;13.668;2022-10-26T10:17:50;7.47;;;3.30;;
12171;SDS011;6149;52.418;13.668;2022-10-26T10:20:20;3.37;;;3.00;;
12171;SDS011;6149;52.418;13.668;2022-10-26T10:22:56;3.87;;;3.47;;
12171;SDS011;6149;52.418;13.668;2022-10-26T10:25:41;8.83;;;3.47;;
12171;SDS011;6149;52.418;13.668;2022-10-26T10:28:18;4.50;;;2.60;;
12171;SDS011;6149;52.418;13.668;2022-10-26T10:30:51;5.90;;;3.23;;
12171;SDS011;6149;52.418;13.668;2022-10-26T10:33:22;6.10;;;2.90;;
12171;SDS011;6149;52.418;13.668;2022-10-26T10:36:01;6.87;;;3.03;;
12171;SDS011;6149;52.418;13.668;2022-10-26T10:38:37;5.20;;;2.73;;
12171;SDS011;6149;52.418;13.668;2022-10-26T10:43:52;6.57;;;2.60;;
12171;SDS011;6149;52.418;13.668;2022-10-26T10:46:31;4.63;;;2.30;;
12171;SDS011;6149;52.418;13.668;2022-10-26T10:49:03;4.83;;;2.10;;
12171;SDS011;6149;52.418;13.668;2022-10-26T10:51:35;5.07;;;2.30;;
12171;SDS011;6149;52.418;13.668;2022-10-26T10:54:05;2.80;;;2.00;;
12171;SDS011;6149;52.418;13.668;2022-10-26T10:56:48;3.53;;;2.07;;
12171;SDS011;6149;52.418;13.668;2022-10-26T10:59:25;6.23;;;2.47;;
12171;SDS011;6149;52.418;13.668;2022-10-26T11:02:10;6.60;;;2.53;;
12171;SDS011;6149;52.418;13.668;2022-10-26T11:05:24;4.50;;;2.27;;
12171;SDS011;6149;52.418;13.668;2022-10-26T11:08:04;4.27;;;2.33;;
12171;SDS011;6149;52.418;13.668;2022-10-26T11:10:37;6.13;;;2.30;;
12171;SDS011;6149;52.418;13.668;2022-10-26T11:13:11;5.60;;;2.60;;
12171;SDS011;6149;52.418;13.668;2022-10-26T11:15:45;3.73;;;2.00;;
12171;SDS011;6149;52.418;13.668;2022-10-26T11:18:16;6.57;;;2.50;;
12171;SDS011;6149;52.418;13.668;2022-10-26T11:20:49;4.73;;;2.40;;
12171;SDS011;6149;52.418;13.668;2022-10-26T11:23:24;2.93;;;1.83;;
12171;SDS011;6149;52.418;13.668;2022-10-26T11:26:03;2.80;;;1.90;;
12171;SDS011;6149;52.418;13.668;2022-10-26T11:28:38;3.67;;;1.93;;
12171;SDS011;6149;52.418;13.668;2022-10-26T11:31:13;6.17;;;2.07;;
12171;SDS011;6149;52.418;13.668;2022-10-26T11:33:48;4.53;;;2.33;;
12171;SDS011;6149;52.418;13.668;2022-10-26T11:36:31;5.10;;;1.90;;
12171;SDS011;6149;52.418;13.668;2022-10-26T11:39:04;3.27;;;1.60;;
12171;SDS011;6149;52.418;13.668;2022-10-26T11:41:42;4.37;;;2.20;;
12171;SDS011;6149;52.418;13.668;2022-10-26T11:44:16;4.17;;;1.70;;
12171;SDS011;6149;52.418;13.668;2022-10-26T11:46:49;3.80;;;2.10;;
12171;SDS011;6149;52.418;13.668;2022-10-26T11:49:22;6.53;;;1.90;;
12171;SDS011;6149;52.418;13.668;2022-10-26T11:52:02;4.70;;;1.80;;
12171;SDS011;6149;52.418;13.668;2022-10-26T11:54:39;3.97;;;1.90;;
12171;SDS011;6149;52.418;13.668;2022-10-26T11:57:13;7.07;;;1.90;;
12171;SDS011;6149;52.418;13.668;2022-10-26T11:59:42;3.33;;;1.63;;
12171;SDS011;6149;52.418;13.668;2022-10-26T12:02:16;3.07;;;1.80;;
12171;SDS011;6149;52.418;13.668;2022-10-26T12:04:49;3.87;;;1.97;;
12171;SDS011;6149;52.418;13.668;2022-10-26T12:07:21;6.47;;;2.13;;
12171;SDS011;6149;52.418;13.668;2022-10-26T12:09:51;2.70;;;1.80;;
12171;SDS011;6149;52.418;13.668;2022-10-26T12:12:23;5.27;;;1.93;;
12171;SDS011;6149;52.418;13.668;2022-10-26T12:15:00;4.87;;;1.80;;
12171;SDS011;6149;52.418;13.668;2022-10-26T12:17:44;3.77;;;1.90;;
12171;SDS011;6149;52.418;13.668;2022-10-26T12:20:21;5.50;;;2.13;;
12171;SDS011;6149;52.418;13.668;2022-10-26T12:23:18;3.27;;;1.47;;
12171;SDS011;6149;52.418;13.668;2022-10-26T12:25:45;3.03;;;1.80;;
12171;SDS011;6149;52.418;13.668;2022-10-26T12:34:13;4.73;;;1.80;;
12171;SDS011;6149;52.418;13.668;2022-10-26T12:39:47;6.63;;;1.80;;
12171;SDS011;6149;52.418;13.668;2022-10-26T12:42:28;3.67;;;1.83;;
12171;SDS011;6149;52.418;13.668;2022-10-26T12:48:02;2.20;;;1.80;;
12171;SDS011;6149;52.418;13.668;2022-10-26T12:50:30;2.47;;;1.37;;
12171;SDS011;6149;52.418;13.668;2022-10-26T12:52:57;4.80;;;1.63;;
12171;SDS011;6149;52.418;13.668;2022-10-26T12:55:38;6.77;;;1.67;;
12171;SDS011;6149;52.418;13.668;2022-10-26T13:01:43;3.50;;;1.80;;
12171;SDS011;6149;52.418;13.668;2022-10-26T13:07:37;4.83;;;1.50;;
12171;SDS011;6149;52.418;13.668;2022-10-26T13:10:14;2.37;;;1.57;;
12171;SDS011;6149;52.418;13.668;2022-10-26T13:12:49;3.07;;;1.30;;
12171;SDS011;6149;52.418;13.668;2022-10-26T13:15:19;3.57;;;1.53;;
12171;SDS011;6149;52.418;13.668;2022-10-26T13:17:54;4.03;;;1.70;;
12171;SDS011;6149;52.418;13.668;2022-10-26T13:20:26;3.03;;;1.60;;
12171;SDS011;6149;52.418;13.668;2022-10-26T13:22:54;4.73;;;1.70;;
12171;SDS011;6149;52.418;13.668;2022-10-26T13:25:22;5.53;;;1.57;;
12171;SDS011;6149;52.418;13.668;2022-10-26T13:28:01;3.83;;;1.37;;
12171;SDS011;6149;52.418;13.668;2022-10-26T13:33:20;3.90;;;1.40;;
12171;SDS011;6149;52.418;13.668;2022-10-26T13:35:51;5.07;;;1.80;;
12171;SDS011;6149;52.418;13.668;2022-10-26T13:38:22;3.83;;;1.67;;
12171;SDS011;6149;52.418;13.668;2022-10-26T13:41:09;4.60;;;1.60;;
12171;SDS011;6149;52.418;13.668;2022-10-26T13:43:49;5.57;;;1.70;;
12171;SDS011;6149;52.418;13.668;2022-10-26T13:46:22;5.67;;;1.60;;
12171;SDS011;6149;52.418;13.668;2022-10-26T13:49:02;2.97;;;1.57;;
12171;SDS011;6149;52.418;13.668;2022-10-26T13:51:38;4.53;;;2.00;;
12171;SDS011;6149;52.418;13.668;2022-10-26T13:54:13;4.07;;;1.83;;
12171;SDS011;6149;52.418;13.668;2022-10-26T13:56:54;4.70;;;1.50;;
12171;SDS011;6149;52.418;13.668;2022-10-26T13:59:32;2.93;;;1.40;;
12171;SDS011;6149;52.418;13.668;2022-10-26T14:02:07;2.67;;;1.40;;
12171;SDS011;6149;52.418;13.668;2022-10-26T14:04:44;2.70;;;1.70;;
12171;SDS011;6149;52.418;13.668;2022-10-26T14:07:14;4.00;;;1.80;;
12171;SDS011;6149;52.418;13.668;2022-10-26T14:09:50;4.10;;;1.53;;
12171;SDS011;6149;52.418;13.668;2022-10-26T14:12:20;6.77;;;1.90;;
12171;SDS011;6149;52.418;13.668;2022-10-26T14:14:49;3.97;;;1.83;;
12171;SDS011;6149;52.418;13.668;2022-10-26T14:17:17;3.83;;;1.83;;
12171;SDS011;6149;52.418;13.668;2022-10-26T14:19:45;4.10;;;1.87;;
12171;SDS011;6149;52.418;13.668;2022-10-26T14:22:20;4.87;;;2.17;;
12171;SDS011;6149;52.418;13.668;2022-10-26T14:24:53;3.47;;;1.80;;
12171;SDS011;6149;52.418;13.668;2022-10-26T14:27:22;4.60;;;1.67;;
12171;SDS011;6149;52.418;13.668;2022-10-26T14:29:54;7.00;;;2.00;;
12171;SDS011;6149;52.418;13.668;2022-10-26T14:32:22;2.73;;;1.60;;
12171;SDS011;6149;52.418;13.668;2022-10-26T14:34:52;4.17;;;1.60;;
12171;SDS011;6149;52.418;13.668;2022-10-26T14:37:23;3.10;;;1.50;;
12171;SDS011;6149;52.418;13.668;2022-10-26T14:40:03;3.83;;;1.73;;
12171;SDS011;6149;52.418;13.668;2022-10-26T14:42:32;3.77;;;1.93;;
12171;SDS011;6149;52.418;13.668;2022-10-26T14:45:17;3.93;;;1.67;;
12171;SDS011;6149;52.418;13.668;2022-10-26T14:47:48;9.23;;;2.00;;
12171;SDS011;6149;52.418;13.668;2022-10-26T14:50:17;3.30;;;1.80;;
12171;SDS011;6149;52.418;13.668;2022-10-26T14:52:50;2.73;;;1.70;;
12171;SDS011;6149;52.418;13.668;2022-10-26T14:55:21;2.23;;;1.30;;
12171;SDS011;6149;52.418;13.668;2022-10-26T14:57:50;2.67;;;1.70;;
12171;SDS011;6149;52.418;13.668;2022-10-26T15:00:22;5.13;;;1.77;;
12171;SDS011;6149;52.418;13.668;2022-10-26T15:02:50;2.27;;;1.50;;
12171;SDS011;6149;52.418;13.668;2022-10-26T15:05:23;5.63;;;2.00;;
12171;SDS011;6149;52.418;13.668;2022-10-26T15:07:53;4.77;;;1.87;;
12171;SDS011;6149;52.418;13.668;2022-10-26T15:13:18;3.57;;;1.77;;
12171;SDS011;6149;52.418;13.668;2022-10-26T15:15:51;2.70;;;1.80;;
12171;SDS011;6149;52.418;13.668;2022-10-26T15:18:22;2.60;;;1.63;;
12171;SDS011;6149;52.418;13.668;2022-10-26T15:20:52;5.67;;;1.73;;
12171;SDS011;6149;52.418;13.668;2022-10-26T15:23:21;3.13;;;1.70;;
12171;SDS011;6149;52.418;13.668;2022-10-26T15:25:52;1.90;;;1.60;;
12171;SDS011;6149;52.418;13.668;2022-10-26T15:28:22;4.03;;;1.90;;
12171;SDS011;6149;52.418;13.668;2022-10-26T15:31:00;2.20;;;1.90;;
12171;SDS011;6149;52.418;13.668;2022-10-26T15:33:29;1.60;;;1.50;;
12171;SDS011;6149;52.418;13.668;2022-10-26T15:36:11;1.97;;;1.67;;
12171;SDS011;6149;52.418;13.668;2022-10-26T15:38:39;3.57;;;1.77;;
12171;SDS011;6149;52.418;13.668;2022-10-26T15:41:11;3.43;;;1.67;;
12171;SDS011;6149;52.418;13.668;2022-10-26T15:43:41;2.63;;;1.80;;
12171;SDS011;6149;52.418;13.668;2022-10-26T15:46:11;1.90;;;1.70;;